Share

Volga, SD

Valley View, Brookings, SD (KSDBROOK2) Elev 1601 ft | 44.28 °N, 96.82 °W | Change Station

Current weather conditions updated 3 seconds ago

Clear
Clear
47.7 °F
Feels Like 48 °F
N
0.0
Wind Variable Wind from SSW
Gusts 0.0 mph
Sunrise 6:37 AM
Sunset 8:17 PM
Moon Waning Gibbous

Tomorrow is forecast to be Much Warmer than today. Thunderstorms likely early tomorrow night.

Pressure 30.02 in
Visibility 10.0 miles
Clouds Clear
Windchill 48 °F
Dew Point 32 °F
Humidity 55%
Rainfall 0.00 in
Snow Depth Not available.
UV 0 out of 16
Pollen 11.00 out of 12
Air Quality Not available.
Flu Activity Sporadic
METAR KMDS 200455Z AUTO 00000KT 10SM CLR 09/M03 A3002 RMK AO2

More Conditions Fewer Conditions

Pressure 30.02 in
Visibility 10.0 miles
Clouds Clear
Windchill 48 °F
Dew Point 32 °F
Humidity 55%
Rainfall 0.00 in
Snow Depth Not available.
UV 0 out of 16
Pollen 11.00 out of 12
Air Quality Not available.
Flu Activity Sporadic
METAR KMDS 200455Z AUTO 00000KT 10SM CLR 09/M03 A3002 RMK AO2

More Conditions Fewer Conditions

10-Day Weather Forecast

Almanac

Astronomy

Apr. 19, 2014 Rise Set
Actual Time 6:37 AM CDT 8:17 PM CDT
Civil Twilight 6:06 AM CDT 8:47 PM CDT
Nautical Twilight 5:29 AM CDT 9:25 PM CDT
Astronomical Twilight 4:49 AM CDT 10:05 PM CDT
Moon 12:07 AM CDT (4/19) 9:51 AM CDT (4/19)
Length of Visible Light 14h 41m
Length of Day
13h 39m
Tomorrow will be 2m 52s longer.
Waning Gibbous, 73% of the Moon is Illuminated
Apr 20
Waning Gibbous
Apr 22
Last Quarter
Apr 29
New
May 6
First Quarter
May 14
Full

Yesterday's Extremes

State Highs State Lows

Community

  • Sunny day at the coast-Cape Arago Lighthouse
    Sunny day at the coast-Cape Arago Lighthouse
  • Cherry Blossoms
    Cherry Blossoms
  • White-Crowned Sparrow
    White-Crowned Sparrow
  • New Day
    New Day
  • Happy Easter!
    Happy Easter!

WunderPhotos

Upload Photos

1,703,081 photos uploaded!

WunderBlogs® & News

Nearby

Snow Depth

Station Depth Elevation
North Rapid Creek 18 in 6130 ft
Blind Park 20 in 6890 ft

Coastal Water Temperatures

Place Temperature
No Stations Reporting

Earthquake Activity

City Distance Mag. Time & Date
No recent earthquake activity has been reported nearby.
Minimum magnitude displayed is 2.5.

Nearby Weather Stations

Station Location Temp. Windchill Dew Point Humidity Wind Precip. Elev Updated Type
Valley View, Brookings, SD, Brookings, SD 47.7 °F 48 °F 32 °F 55% SSW  at  0.0 mph 0.00 in / hr 1601 ft 11:59 PM CDT Rapid Fire
Indian Hills, Brookings, SD 47.5 °F 48 °F 33 °F 57% SE  at  0.0 mph 0.00 in / hr 1650 ft 11:54 PM CDT Normal
Brown Farm LTD., Arlington, SD 52.8 °F - 28 °F 39% West  at  3.0 mph 0.00 in / hr 1808 ft 11:59 PM CDT Rapid Fire
Elkton, SD, Elkton, SD 47.2 °F 44 °F 33 °F 58% East  at  6.0 mph 0.00 in / hr 1702 ft 11:59 PM CDT Rapid Fire

Show More Stations Show Fewer Stations

What do you think?

We're not finished. Please let us know what you like, what you don't like, and what you are still missing.